sensor_id;sensor_type;location;lat;lon;timestamp;pressure;altitude;pressure_sealevel;temperature;humidity
59170;BME280;52474;52.236;5.114;2024-01-10T00:01:42;103338.59;;;-4.86;100.00
59170;BME280;52474;52.236;5.114;2024-01-10T00:04:08;103331.78;;;-4.82;100.00
59170;BME280;52474;52.236;5.114;2024-01-10T00:06:34;103332.66;;;-4.80;100.00
59170;BME280;52474;52.236;5.114;2024-01-10T00:08:59;103327.50;;;-4.80;100.00
59170;BME280;52474;52.236;5.114;2024-01-10T00:11:25;103329.13;;;-4.87;100.00
59170;BME280;52474;52.236;5.114;2024-01-10T00:13:51;103325.75;;;-4.81;100.00
59170;BME280;52474;52.236;5.114;2024-01-10T00:16:17;103311.09;;;-4.82;100.00
59170;BME280;52474;52.236;5.114;2024-01-10T00:18:42;103306.56;;;-4.94;100.00
59170;BME280;52474;52.236;5.114;2024-01-10T00:21:08;103324.19;;;-4.73;100.00
59170;BME280;52474;52.236;5.114;2024-01-10T00:23:34;103311.03;;;-4.85;100.00
59170;BME280;52474;52.236;5.114;2024-01-10T00:25:59;103316.41;;;-4.75;100.00
59170;BME280;52474;52.236;5.114;2024-01-10T00:28:25;103312.25;;;-4.66;100.00
59170;BME280;52474;52.236;5.114;2024-01-10T00:30:51;103307.94;;;-4.67;100.00
59170;BME280;52474;52.236;5.114;2024-01-10T00:33:17;103288.59;;;-4.88;100.00
59170;BME280;52474;52.236;5.114;2024-01-10T00:35:43;103309.41;;;-4.80;100.00
59170;BME280;52474;52.236;5.114;2024-01-10T00:38:09;103290.31;;;-4.88;100.00
59170;BME280;52474;52.236;5.114;2024-01-10T00:40:34;103304.22;;;-4.82;100.00
59170;BME280;52474;52.236;5.114;2024-01-10T00:43:01;103275.50;;;-4.97;100.00
59170;BME280;52474;52.236;5.114;2024-01-10T00:45:27;103269.44;;;-4.99;100.00
59170;BME280;52474;52.236;5.114;2024-01-10T00:47:52;103276.44;;;-4.93;100.00
59170;BME280;52474;52.236;5.114;2024-01-10T00:50:18;103271.22;;;-4.97;100.00
59170;BME280;52474;52.236;5.114;2024-01-10T00:52:45;103303.41;;;-4.79;100.00
59170;BME280;52474;52.236;5.114;2024-01-10T00:55:11;103295.53;;;-4.85;100.00
59170;BME280;52474;52.236;5.114;2024-01-10T00:57:36;103293.75;;;-4.89;100.00
59170;BME280;52474;52.236;5.114;2024-01-10T01:00:07;103283.19;;;-5.00;100.00
59170;BME280;52474;52.236;5.114;2024-01-10T01:02:34;103286.63;;;-5.01;100.00
59170;BME280;52474;52.236;5.114;2024-01-10T01:05:00;103283.91;;;-5.07;100.00
59170;BME280;52474;52.236;5.114;2024-01-10T01:07:26;103290.03;;;-5.02;100.00
59170;BME280;52474;52.236;5.114;2024-01-10T01:09:52;103281.56;;;-4.95;100.00
59170;BME280;52474;52.236;5.114;2024-01-10T01:12:17;103262.38;;;-5.08;100.00
59170;BME280;52474;52.236;5.114;2024-01-10T01:14:43;103281.63;;;-4.92;100.00
59170;BME280;52474;52.236;5.114;2024-01-10T01:17:09;103296.31;;;-4.89;100.00
59170;BME280;52474;52.236;5.114;2024-01-10T01:19:34;103290.22;;;-4.94;100.00
59170;BME280;52474;52.236;5.114;2024-01-10T01:22:00;103274.34;;;-5.13;100.00
59170;BME280;52474;52.236;5.114;2024-01-10T01:24:26;103275.34;;;-5.06;100.00
59170;BME280;52474;52.236;5.114;2024-01-10T01:26:52;103283.22;;;-4.99;100.00
59170;BME280;52474;52.236;5.114;2024-01-10T01:29:18;103258.78;;;-5.16;100.00
59170;BME280;52474;52.236;5.114;2024-01-10T01:31:44;103261.38;;;-5.16;100.00
59170;BME280;52474;52.236;5.114;2024-01-10T01:34:10;103280.47;;;-5.08;100.00
59170;BME280;52474;52.236;5.114;2024-01-10T01:36:35;103292.69;;;-4.99;100.00
59170;BME280;52474;52.236;5.114;2024-01-10T01:39:01;103269.31;;;-5.05;100.00
59170;BME280;52474;52.236;5.114;2024-01-10T01:41:27;103287.53;;;-4.98;100.00
59170;BME280;52474;52.236;5.114;2024-01-10T01:43:52;103261.47;;;-5.11;100.00
59170;BME280;52474;52.236;5.114;2024-01-10T01:46:18;103270.16;;;-5.06;100.00
59170;BME280;52474;52.236;5.114;2024-01-10T01:48:44;103278.94;;;-4.98;100.00
59170;BME280;52474;52.236;5.114;2024-01-10T01:51:12;103256.34;;;-5.08;100.00
59170;BME280;52474;52.236;5.114;2024-01-10T01:53:39;103272.94;;;-4.97;100.00
59170;BME280;52474;52.236;5.114;2024-01-10T01:56:06;103265.06;;;-5.03;100.00
59170;BME280;52474;52.236;5.114;2024-01-10T01:58:33;103250.22;;;-5.12;100.00
59170;BME280;52474;52.236;5.114;2024-01-10T02:00:59;103276.34;;;-4.98;100.00
59170;BME280;52474;52.236;5.114;2024-01-10T02:03:25;103273.75;;;-4.98;100.00
59170;BME280;52474;52.236;5.114;2024-01-10T02:05:52;103224.13;;;-5.27;100.00
59170;BME280;52474;52.236;5.114;2024-01-10T02:08:17;103238.91;;;-5.20;100.00
59170;BME280;52474;52.236;5.114;2024-01-10T02:10:43;103232.81;;;-5.24;100.00
59170;BME280;52474;52.236;5.114;2024-01-10T02:13:09;103265.09;;;-5.00;100.00
59170;BME280;52474;52.236;5.114;2024-01-10T02:15:37;103257.25;;;-5.05;100.00
59170;BME280;52474;52.236;5.114;2024-01-10T02:18:04;103266.88;;;-4.98;100.00
59170;BME280;52474;52.236;5.114;2024-01-10T02:20:33;103252.81;;;-5.12;100.00
59170;BME280;52474;52.236;5.114;2024-01-10T02:22:58;103258.84;;;-5.13;100.00
59170;BME280;52474;52.236;5.114;2024-01-10T02:25:24;103236.09;;;-5.32;100.00
59170;BME280;52474;52.236;5.114;2024-01-10T02:27:50;103256.16;;;-5.18;100.00
59170;BME280;52474;52.236;5.114;2024-01-10T02:30:15;103254.31;;;-5.25;100.00
59170;BME280;52474;52.236;5.114;2024-01-10T02:32:41;103244.94;;;-5.20;100.00
59170;BME280;52474;52.236;5.114;2024-01-10T02:35:07;103233.56;;;-5.29;100.00
59170;BME280;52474;52.236;5.114;2024-01-10T02:37:33;103219.69;;;-5.34;100.00
59170;BME280;52474;52.236;5.114;2024-01-10T02:39:59;103239.84;;;-5.16;100.00
59170;BME280;52474;52.236;5.114;2024-01-10T02:42:26;103257.94;;;-5.16;100.00
59170;BME280;52474;52.236;5.114;2024-01-10T02:44:53;103221.44;;;-5.33;100.00
59170;BME280;52474;52.236;5.114;2024-01-10T02:47:18;103243.25;;;-5.18;100.00
59170;BME280;52474;52.236;5.114;2024-01-10T02:49:44;103244.94;;;-5.20;100.00
59170;BME280;52474;52.236;5.114;2024-01-10T02:52:09;103244.00;;;-5.23;100.00
59170;BME280;52474;52.236;5.114;2024-01-10T02:54:35;103249.94;;;-5.29;100.00
59170;BME280;52474;52.236;5.114;2024-01-10T02:57:00;103239.63;;;-5.27;100.00
59170;BME280;52474;52.236;5.114;2024-01-10T02:59:26;103224.94;;;-5.31;100.00
59170;BME280;52474;52.236;5.114;2024-01-10T03:01:52;103238.94;;;-5.19;100.00
59170;BME280;52474;52.236;5.114;2024-01-10T03:04:18;103234.72;;;-5.13;100.00
59170;BME280;52474;52.236;5.114;2024-01-10T03:06:43;103226.94;;;-5.16;100.00
59170;BME280;52474;52.236;5.114;2024-01-10T03:09:09;103220.94;;;-5.12;100.00
59170;BME280;52474;52.236;5.114;2024-01-10T03:11:34;103190.47;;;-5.32;100.00
59170;BME280;52474;52.236;5.114;2024-01-10T03:14:07;103220.94;;;-5.14;100.00
59170;BME280;52474;52.236;5.114;2024-01-10T03:16:34;103195.75;;;-5.26;100.00
59170;BME280;52474;52.236;5.114;2024-01-10T03:19:00;103216.72;;;-5.09;100.00
59170;BME280;52474;52.236;5.114;2024-01-10T03:21:26;103192.34;;;-5.23;100.00
59170;BME280;52474;52.236;5.114;2024-01-10T03:23:54;103190.63;;;-5.23;100.00
59170;BME280;52474;52.236;5.114;2024-01-10T03:26:20;103208.03;;;-5.12;100.00
59170;BME280;52474;52.236;5.114;2024-01-10T03:28:45;103205.34;;;-5.19;100.00
59170;BME280;52474;52.236;5.114;2024-01-10T03:31:11;103203.72;;;-5.12;100.00
59170;BME280;52474;52.236;5.114;2024-01-10T03:33:37;103195.97;;;-5.12;100.00
59170;BME280;52474;52.236;5.114;2024-01-10T03:36:05;103203.72;;;-5.12;100.00
59170;BME280;52474;52.236;5.114;2024-01-10T03:38:31;103163.97;;;-5.22;100.00
59170;BME280;52474;52.236;5.114;2024-01-10T03:40:57;103191.72;;;-5.10;100.00
59170;BME280;52474;52.236;5.114;2024-01-10T03:43:22;103189.22;;;-5.05;100.00
59170;BME280;52474;52.236;5.114;2024-01-10T03:45:48;103179.56;;;-5.15;100.00
59170;BME280;52474;52.236;5.114;2024-01-10T03:48:13;103199.53;;;-5.07;100.00
59170;BME280;52474;52.236;5.114;2024-01-10T03:50:39;103191.72;;;-5.10;100.00
59170;BME280;52474;52.236;5.114;2024-01-10T03:53:05;103195.19;;;-5.09;100.00
59170;BME280;52474;52.236;5.114;2024-01-10T03:55:31;103196.16;;;-5.03;100.00
59170;BME280;52474;52.236;5.114;2024-01-10T03:57:57;103202.88;;;-5.12;100.00
59170;BME280;52474;52.236;5.114;2024-01-10T04:00:22;103191.63;;;-5.16;100.00
59170;BME280;52474;52.236;5.114;2024-01-10T04:02:48;103172.47;;;-5.27;100.00
59170;BME280;52474;52.236;5.114;2024-01-10T04:05:13;103199.47;;;-5.11;100.00
59170;BME280;52474;52.236;5.114;2024-01-10T04:07:40;103168.13;;;-5.30;100.00
59170;BME280;52474;52.236;5.114;2024-01-10T04:10:12;103172.47;;;-5.29;100.00
59170;BME280;52474;52.236;5.114;2024-01-10T04:12:45;103195.84;;;-5.21;100.00
59170;BME280;52474;52.236;5.114;2024-01-10T04:15:11;103201.97;;;-5.16;100.00
59170;BME280;52474;52.236;5.114;2024-01-10T04:17:40;103201.09;;;-5.15;100.00
59170;BME280;52474;52.236;5.114;2024-01-10T04:20:06;103199.34;;;-5.18;100.00
59170;BME280;52474;52.236;5.114;2024-01-10T04:22:32;103193.34;;;-5.16;100.00
59170;BME280;52474;52.236;5.114;2024-01-10T04:24:58;103186.41;;;-5.18;100.00
59170;BME280;52474;52.236;5.114;2024-01-10T04:27:25;103170.75;;;-5.27;100.00
59170;BME280;52474;52.236;5.114;2024-01-10T04:29:50;103176.13;;;-5.16;100.00
59170;BME280;52474;52.236;5.114;2024-01-10T04:32:16;103186.63;;;-5.07;100.00
59170;BME280;52474;52.236;5.114;2024-01-10T04:34:42;103163.06;;;-5.24;100.00
59170;BME280;52474;52.236;5.114;2024-01-10T04:37:07;103189.94;;;-5.12;100.00
59170;BME280;52474;52.236;5.114;2024-01-10T04:39:36;103184.69;;;-5.17;100.00
59170;BME280;52474;52.236;5.114;2024-01-10T04:42:03;103192.47;;;-5.15;100.00
59170;BME280;52474;52.236;5.114;2024-01-10T04:44:29;103194.25;;;-5.13;100.00
59170;BME280;52474;52.236;5.114;2024-01-10T04:46:55;103191.72;;;-5.11;100.00
59170;BME280;52474;52.236;5.114;2024-01-10T04:49:21;103160.41;;;-5.28;100.00
59170;BME280;52474;52.236;5.114;2024-01-10T04:51:47;103183.91;;;-5.13;100.00
59170;BME280;52474;52.236;5.114;2024-01-10T04:54:13;103182.97;;;-5.18;100.00
59170;BME280;52474;52.236;5.114;2024-01-10T04:56:38;103170.97;;;-5.14;100.00
59170;BME280;52474;52.236;5.114;2024-01-10T04:59:04;103164.84;;;-5.20;100.00
59170;BME280;52474;52.236;5.114;2024-01-10T05:01:31;103157.06;;;-5.23;100.00
59170;BME280;52474;52.236;5.114;2024-01-10T05:03:57;103174.53;;;-5.09;100.00
59170;BME280;52474;52.236;5.114;2024-01-10T05:06:22;103170.25;;;-5.06;100.00
59170;BME280;52474;52.236;5.114;2024-01-10T05:08:49;103148.34;;;-5.28;100.00
59170;BME280;52474;52.236;5.114;2024-01-10T05:11:15;103166.69;;;-5.12;100.00
59170;BME280;52474;52.236;5.114;2024-01-10T05:13:41;103169.31;;;-5.11;100.00
59170;BME280;52474;52.236;5.114;2024-01-10T05:16:07;103167.50;;;-5.15;100.00
59170;BME280;52474;52.236;5.114;2024-01-10T05:18:32;103170.16;;;-5.12;100.00
59170;BME280;52474;52.236;5.114;2024-01-10T05:20:59;103132.94;;;-5.23;100.00
59170;BME280;52474;52.236;5.114;2024-01-10T05:23:25;103161.53;;;-5.12;100.00
59170;BME280;52474;52.236;5.114;2024-01-10T05:25:51;103107.69;;;-5.40;100.00
59170;BME280;52474;52.236;5.114;2024-01-10T05:28:16;103165.88;;;-5.11;100.00
59170;BME280;52474;52.236;5.114;2024-01-10T05:30:43;103159.03;;;-5.08;100.00
59170;BME280;52474;52.236;5.114;2024-01-10T05:33:09;103125.97;;;-5.27;100.00
59170;BME280;52474;52.236;5.114;2024-01-10T05:35:37;103157.25;;;-5.10;100.00
59170;BME280;52474;52.236;5.114;2024-01-10T05:38:03;103153.69;;;-5.19;100.00
59170;BME280;52474;52.236;5.114;2024-01-10T05:40:29;103134.53;;;-5.30;100.00
59170;BME280;52474;52.236;5.114;2024-01-10T05:42:58;103158.03;;;-5.16;100.00
59170;BME280;52474;52.236;5.114;2024-01-10T05:45:26;103167.56;;;-5.12;100.00
59170;BME280;52474;52.236;5.114;2024-01-10T05:47:52;103164.09;;;-5.14;100.00
59170;BME280;52474;52.236;5.114;2024-01-10T05:50:18;103159.88;;;-5.09;100.00
59170;BME280;52474;52.236;5.114;2024-01-10T05:52:44;103164.09;;;-5.14;100.00
59170;BME280;52474;52.236;5.114;2024-01-10T05:55:09;103163.22;;;-5.16;100.00
59170;BME280;52474;52.236;5.114;2024-01-10T05:57:36;103132.72;;;-5.35;100.00
59170;BME280;52474;52.236;5.114;2024-01-10T06:00:02;103124.03;;;-5.41;100.00
59170;BME280;52474;52.236;5.114;2024-01-10T06:02:30;103131.06;;;-5.33;100.00
59170;BME280;52474;52.236;5.114;2024-01-10T06:04:56;103159.69;;;-5.21;100.00
59170;BME280;52474;52.236;5.114;2024-01-10T06:07:22;103156.28;;;-5.17;100.00
59170;BME280;52474;52.236;5.114;2024-01-10T06:09:47;103155.41;;;-5.18;100.00
59170;BME280;52474;52.236;5.114;2024-01-10T06:12:13;103147.63;;;-5.21;100.00
59170;BME280;52474;52.236;5.114;2024-01-10T06:14:39;103131.13;;;-5.29;100.00
59170;BME280;52474;52.236;5.114;2024-01-10T06:17:05;103132.09;;;-5.24;100.00
59170;BME280;52474;52.236;5.114;2024-01-10T06:19:31;103116.50;;;-5.28;100.00
59170;BME280;52474;52.236;5.114;2024-01-10T06:21:58;103130.41;;;-5.20;100.00
59170;BME280;52474;52.236;5.114;2024-01-10T06:24:25;103134.78;;;-5.16;100.00
59170;BME280;52474;52.236;5.114;2024-01-10T06:26:50;103099.28;;;-5.28;100.00
59170;BME280;52474;52.236;5.114;2024-01-10T06:29:17;103121.84;;;-5.18;100.00
59170;BME280;52474;52.236;5.114;2024-01-10T06:31:42;103122.78;;;-5.14;100.00
59170;BME280;52474;52.236;5.114;2024-01-10T06:34:08;103127.03;;;-5.16;100.00
59170;BME280;52474;52.236;5.114;2024-01-10T06:36:34;103098.28;;;-5.36;100.00
59170;BME280;52474;52.236;5.114;2024-01-10T06:39:00;103122.69;;;-5.19;100.00
59170;BME280;52474;52.236;5.114;2024-01-10T06:41:26;103101.91;;;-5.26;100.00
59170;BME280;52474;52.236;5.114;2024-01-10T06:43:52;103130.44;;;-5.17;100.00
59170;BME280;52474;52.236;5.114;2024-01-10T06:46:18;103139.09;;;-5.16;100.00
59170;BME280;52474;52.236;5.114;2024-01-10T06:48:44;103113.78;;;-5.36;100.00
59170;BME280;52474;52.236;5.114;2024-01-10T06:51:12;103134.59;;;-5.28;100.00
59170;BME280;52474;52.236;5.114;2024-01-10T06:53:37;103138.06;;;-5.25;100.00
59170;BME280;52474;52.236;5.114;2024-01-10T06:56:03;103139.84;;;-5.24;100.00
59170;BME280;52474;52.236;5.114;2024-01-10T06:58:29;103118.84;;;-5.42;100.00
59170;BME280;52474;52.236;5.114;2024-01-10T07:00:55;103124.13;;;-5.36;100.00
59170;BME280;52474;52.236;5.114;2024-01-10T07:03:20;103142.34;;;-5.27;100.00
59170;BME280;52474;52.236;5.114;2024-01-10T07:05:46;103144.88;;;-5.30;100.00
59170;BME280;52474;52.236;5.114;2024-01-10T07:08:11;103153.56;;;-5.26;100.00
59170;BME280;52474;52.236;5.114;2024-01-10T07:10:37;103084.88;;;-5.64;100.00
59170;BME280;52474;52.236;5.114;2024-01-10T07:13:04;103107.56;;;-5.47;100.00
59170;BME280;52474;52.236;5.114;2024-01-10T07:15:30;103144.88;;;-5.31;100.00
59170;BME280;52474;52.236;5.114;2024-01-10T07:17:56;103138.75;;;-5.36;100.00
59170;BME280;52474;52.236;5.114;2024-01-10T07:20:21;103153.25;;;-5.42;100.00
59170;BME280;52474;52.236;5.114;2024-01-10T07:22:50;103159.41;;;-5.36;100.00
59170;BME280;52474;52.236;5.114;2024-01-10T07:25:17;103148.91;;;-5.44;100.00
59170;BME280;52474;52.236;5.114;2024-01-10T07:27:43;103142.97;;;-5.40;100.00
59170;BME280;52474;52.236;5.114;2024-01-10T07:30:09;103171.38;;;-5.40;100.00
59170;BME280;52474;52.236;5.114;2024-01-10T07:32:45;103178.28;;;-5.39;100.00
59170;BME280;52474;52.236;5.114;2024-01-10T07:35:12;103152.19;;;-5.54;100.00
59170;BME280;52474;52.236;5.114;2024-01-10T07:37:42;103158.16;;;-5.58;100.00
59170;BME280;52474;52.236;5.114;2024-01-10T07:40:10;103179.00;;;-5.48;100.00
59170;BME280;52474;52.236;5.114;2024-01-10T07:42:37;103185.16;;;-5.41;100.00
59170;BME280;52474;52.236;5.114;2024-01-10T07:45:03;103147.81;;;-5.58;100.00
59170;BME280;52474;52.236;5.114;2024-01-10T07:47:33;103163.53;;;-5.45;100.00
59170;BME280;52474;52.236;5.114;2024-01-10T07:50:11;103147.81;;;-5.57;100.00
59170;BME280;52474;52.236;5.114;2024-01-10T07:52:40;103162.66;;;-5.47;100.00
59170;BME280;52474;52.236;5.114;2024-01-10T07:55:06;103189.53;;;-5.35;100.00
59170;BME280;52474;52.236;5.114;2024-01-10T07:57:35;103163.44;;;-5.51;100.00
59170;BME280;52474;52.236;5.114;2024-01-10T08:00:05;103176.50;;;-5.42;100.00
59170;BME280;52474;52.236;5.114;2024-01-10T08:02:34;103183.63;;;-5.30;100.00
59170;BME280;52474;52.236;5.114;2024-01-10T08:05:01;103175.03;;;-5.29;100.00
59170;BME280;52474;52.236;5.114;2024-01-10T08:07:33;103149.81;;;-5.42;100.00
59170;BME280;52474;52.236;5.114;2024-01-10T08:09:59;103162.94;;;-5.30;100.00
59170;BME280;52474;52.236;5.114;2024-01-10T08:12:25;103160.41;;;-5.28;100.00
59170;BME280;52474;52.236;5.114;2024-01-10T08:14:51;103149.09;;;-5.36;100.00
59170;BME280;52474;52.236;5.114;2024-01-10T08:17:16;103166.41;;;-5.29;100.00
59170;BME280;52474;52.236;5.114;2024-01-10T08:19:42;103141.25;;;-5.40;100.00
59170;BME280;52474;52.236;5.114;2024-01-10T08:22:08;103185.56;;;-5.18;100.00
59170;BME280;52474;52.236;5.114;2024-01-10T08:24:33;103179.53;;;-5.19;100.00
59170;BME280;52474;52.236;5.114;2024-01-10T08:26:59;103183.13;;;-5.09;100.00
59170;BME280;52474;52.236;5.114;2024-01-10T08:29:25;103178.84;;;-5.08;100.00
59170;BME280;52474;52.236;5.114;2024-01-10T08:31:55;103163.41;;;-5.04;100.00
59170;BME280;52474;52.236;5.114;2024-01-10T08:34:22;103182.41;;;-5.02;100.00
59170;BME280;52474;52.236;5.114;2024-01-10T08:36:48;103168.66;;;-4.99;100.00
59170;BME280;52474;52.236;5.114;2024-01-10T08:39:16;103148.84;;;-4.99;100.00
59170;BME280;52474;52.236;5.114;2024-01-10T08:41:42;103160.13;;;-4.93;100.00
59170;BME280;52474;52.236;5.114;2024-01-10T08:44:12;103177.59;;;-4.79;100.00
59170;BME280;52474;52.236;5.114;2024-01-10T08:46:38;103175.88;;;-4.78;100.00
59170;BME280;52474;52.236;5.114;2024-01-10T08:49:04;103162.19;;;-4.72;100.00
59170;BME280;52474;52.236;5.114;2024-01-10T08:51:30;103171.72;;;-4.68;100.00
59170;BME280;52474;52.236;5.114;2024-01-10T08:53:56;103130.25;;;-4.76;100.00
59170;BME280;52474;52.236;5.114;2024-01-10T08:56:22;103165.84;;;-4.58;100.00
59170;BME280;52474;52.236;5.114;2024-01-10T08:58:48;103177.13;;;-4.53;100.00
59170;BME280;52474;52.236;5.114;2024-01-10T09:01:14;103152.94;;;-4.57;100.00
59170;BME280;52474;52.236;5.114;2024-01-10T09:03:39;103152.91;;;-4.58;100.00
59170;BME280;52474;52.236;5.114;2024-01-10T09:06:05;103160.09;;;-4.39;100.00
59170;BME280;52474;52.236;5.114;2024-01-10T09:08:35;103160.94;;;-4.40;100.00
59170;BME280;52474;52.236;5.114;2024-01-10T09:11:02;103168.91;;;-4.24;100.00
59170;BME280;52474;52.236;5.114;2024-01-10T09:13:28;103163.78;;;-4.21;100.00
59170;BME280;52474;52.236;5.114;2024-01-10T09:15:54;103172.47;;;-4.16;100.00
59170;BME280;52474;52.236;5.114;2024-01-10T09:18:20;103166.53;;;-4.11;100.00
59170;BME280;52474;52.236;5.114;2024-01-10T09:20:46;103164.09;;;-3.98;100.00
59170;BME280;52474;52.236;5.114;2024-01-10T09:23:13;103156.31;;;-3.98;100.00
59170;BME280;52474;52.236;5.114;2024-01-10T09:25:39;103139.03;;;-3.99;100.00
59170;BME280;52474;52.236;5.114;2024-01-10T09:28:05;103149.44;;;-3.95;100.00
59170;BME280;52474;52.236;5.114;2024-01-10T09:30:31;103148.69;;;-3.88;100.00
59170;BME280;52474;52.236;5.114;2024-01-10T09:32:57;103132.94;;;-4.06;100.00
59170;BME280;52474;52.236;5.114;2024-01-10T09:35:24;103159.84;;;-3.92;100.00
59170;BME280;52474;52.236;5.114;2024-01-10T09:37:50;103168.56;;;-3.85;100.00
59170;BME280;52474;52.236;5.114;2024-01-10T09:40:16;103163.44;;;-3.80;100.00
59170;BME280;52474;52.236;5.114;2024-01-10T09:42:48;103162.56;;;-3.79;100.00
59170;BME280;52474;52.236;5.114;2024-01-10T09:45:15;103153.09;;;-3.79;100.00
59170;BME280;52474;52.236;5.114;2024-01-10T09:47:48;103169.63;;;-3.64;100.00
59170;BME280;52474;52.236;5.114;2024-01-10T09:50:14;103179.16;;;-3.62;100.00
59170;BME280;52474;52.236;5.114;2024-01-10T09:55:16;103138.53;;;-3.68;100.00
59170;BME280;52474;52.236;5.114;2024-01-10T09:57:42;103157.78;;;-3.44;100.00
59170;BME280;52474;52.236;5.114;2024-01-10T10:00:10;103153.47;;;-3.43;100.00
59170;BME280;52474;52.236;5.114;2024-01-10T10:02:38;103137.00;;;-3.52;100.00
59170;BME280;52474;52.236;5.114;2024-01-10T10:05:16;103153.63;;;-3.30;100.00
59170;BME280;52474;52.236;5.114;2024-01-10T10:07:49;103140.66;;;-3.30;100.00
59170;BME280;52474;52.236;5.114;2024-01-10T10:10:19;103156.22;;;-3.25;100.00
59170;BME280;52474;52.236;5.114;2024-01-10T10:12:46;103152.03;;;-3.14;100.00
59170;BME280;52474;52.236;5.114;2024-01-10T10:15:14;103126.88;;;-3.22;100.00
59170;BME280;52474;52.236;5.114;2024-01-10T10:17:41;103153.84;;;-3.04;100.00
59170;BME280;52474;52.236;5.114;2024-01-10T10:20:13;103147.03;;;-2.89;100.00
59170;BME280;52474;52.236;5.114;2024-01-10T10:22:40;103150.50;;;-2.89;100.00
59170;BME280;52474;52.236;5.114;2024-01-10T10:25:07;103150.63;;;-2.72;100.00
59170;BME280;52474;52.236;5.114;2024-01-10T10:27:36;103155.00;;;-2.65;100.00
59170;BME280;52474;52.236;5.114;2024-01-10T10:30:02;103148.22;;;-2.43;100.00
59170;BME280;52474;52.236;5.114;2024-01-10T10:32:27;103132.84;;;-0.20;100.00
59170;BME280;52474;52.236;5.114;2024-01-10T10:34:56;103118.63;;;5.56;100.00
59170;BME280;52474;52.236;5.114;2024-01-10T10:37:21;103109.28;;;9.20;60.78
59170;BME280;52474;52.236;5.114;2024-01-10T10:39:47;103123.22;;;8.61;50.93
59170;BME280;52474;52.236;5.114;2024-01-10T10:42:14;103116.81;;;8.89;52.22
59170;BME280;52474;52.236;5.114;2024-01-10T10:44:42;103123.22;;;10.77;50.26
59170;BME280;52474;52.236;5.114;2024-01-10T10:47:10;103127.31;;;10.10;46.17
59170;BME280;52474;52.236;5.114;2024-01-10T10:49:43;103125.22;;;8.32;45.10
59170;BME280;52474;52.236;5.114;2024-01-10T10:52:12;103102.13;;;9.22;45.64
59170;BME280;52474;52.236;5.114;2024-01-10T10:54:38;103117.59;;;10.29;44.09
59170;BME280;52474;52.236;5.114;2024-01-10T10:57:05;103105.31;;;10.27;41.96
59170;BME280;52474;52.236;5.114;2024-01-10T10:59:34;103114.41;;;10.40;43.05
59170;BME280;52474;52.236;5.114;2024-01-10T11:02:01;103118.38;;;11.71;42.71
59170;BME280;52474;52.236;5.114;2024-01-10T11:04:27;103116.75;;;10.29;42.41
59170;BME280;52474;52.236;5.114;2024-01-10T11:06:54;103124.94;;;10.23;43.78
59170;BME280;52474;52.236;5.114;2024-01-10T11:09:20;103126.06;;;11.93;41.71
59170;BME280;52474;52.236;5.114;2024-01-10T11:12:21;103125.00;;;11.29;40.04
59170;BME280;52474;52.236;5.114;2024-01-10T11:21:01;103117.84;;;12.29;38.48
59170;BME280;52474;52.236;5.114;2024-01-10T11:23:47;103130.88;;;10.83;38.38
59170;BME280;52474;52.236;5.114;2024-01-10T11:26:16;103110.88;;;11.61;38.73
59170;BME280;52474;52.236;5.114;2024-01-10T11:28:43;103079.97;;;13.16;37.84
59170;BME280;52474;52.236;5.114;2024-01-10T11:31:09;103096.69;;;12.74;37.77
59170;BME280;52474;52.236;5.114;2024-01-10T11:33:36;103115.34;;;12.88;37.48
59170;BME280;52474;52.236;5.114;2024-01-10T11:36:09;103096.78;;;13.02;38.25
59170;BME280;52474;52.236;5.114;2024-01-10T11:38:48;103092.47;;;12.08;37.55
59170;BME280;52474;52.236;5.114;2024-01-10T11:41:24;103100.28;;;11.61;37.71
59170;BME280;52474;52.236;5.114;2024-01-10T11:49:15;103108.56;;;9.96;39.31
59170;BME280;52474;52.236;5.114;2024-01-10T11:51:48;103098.72;;;11.24;38.87
59170;BME280;52474;52.236;5.114;2024-01-10T11:54:40;103114.63;;;11.07;38.99
59170;BME280;52474;52.236;5.114;2024-01-10T11:59:42;103098.63;;;11.76;36.50
59170;BME280;52474;52.236;5.114;2024-01-10T12:02:08;103096.88;;;10.74;38.48
59170;BME280;52474;52.236;5.114;2024-01-10T12:04:34;103086.06;;;12.12;37.33
59170;BME280;52474;52.236;5.114;2024-01-10T12:07:02;103084.41;;;13.01;36.06
59170;BME280;52474;52.236;5.114;2024-01-10T12:09:29;103086.91;;;11.47;37.12
59170;BME280;52474;52.236;5.114;2024-01-10T12:11:55;103084.56;;;11.08;37.16
59170;BME280;52474;52.236;5.114;2024-01-10T12:14:21;103085.59;;;10.88;38.03
59170;BME280;52474;52.236;5.114;2024-01-10T12:16:47;103079.97;;;10.21;37.88
59170;BME280;52474;52.236;5.114;2024-01-10T12:19:13;103091.66;;;7.90;41.42
59170;BME280;52474;52.236;5.114;2024-01-10T12:21:39;103083.50;;;6.48;44.46
59170;BME280;52474;52.236;5.114;2024-01-10T12:24:07;103086.59;;;5.10;47.57
59170;BME280;52474;52.236;5.114;2024-01-10T12:26:33;103087.63;;;3.94;53.47
59170;BME280;52474;52.236;5.114;2024-01-10T12:28:59;103093.66;;;3.54;62.57
59170;BME280;52474;52.236;5.114;2024-01-10T12:31:29;103093.41;;;3.23;63.38
59170;BME280;52474;52.236;5.114;2024-01-10T12:33:55;103076.03;;;2.69;67.87
59170;BME280;52474;52.236;5.114;2024-01-10T12:36:20;103090.44;;;3.41;73.54
59170;BME280;52474;52.236;5.114;2024-01-10T12:38:47;103069.38;;;4.64;64.86
59170;BME280;52474;52.236;5.114;2024-01-10T12:41:14;103076.91;;;5.44;56.83
59170;BME280;52474;52.236;5.114;2024-01-10T12:43:41;103080.38;;;5.14;54.62
59170;BME280;52474;52.236;5.114;2024-01-10T12:46:07;103081.91;;;2.84;65.34
59170;BME280;52474;52.236;5.114;2024-01-10T12:48:34;103080.81;;;1.79;89.63
59170;BME280;52474;52.236;5.114;2024-01-10T12:51:04;103066.47;;;3.16;80.50
59170;BME280;52474;52.236;5.114;2024-01-10T12:53:51;103072.88;;;3.47;69.00
59170;BME280;52474;52.236;5.114;2024-01-10T12:56:18;103081.09;;;2.24;75.33
59170;BME280;52474;52.236;5.114;2024-01-10T12:58:43;103076.22;;;3.08;76.19